Bocking's Elm, United Kingdom
Current Conditions -  °F | °C
As of 12:50 PM on Monday 20 Oct 2014 (Local Time) from EGUW Reporting Station
Scattered Clouds Scattered Clouds  
Wind Chill: 59°   Ceiling: Unl
Heat Index: 59°   Visibility: 6mi
Dew Point: 50°   Wind: 17mph
Humidity: 72%   Direction: 240°WSW
Pressure: 29.97"   Gusts: NA
Location:  51.86°N, 1.15°E
Report Text: EGUW 201150Z 24015KT 9999 SCT018 15/10 Q1015 WHT TEMPO FEW016 BLU
Loading
Personal Weather Stations






























Interactive Weather Map
Tropical Storm Tracking
New forecast layout! Learn more

10-Day Weather Forecast

Advertisements
Track Severe Weather on mobile